sensor_id;sensor_type;location;lat;lon;timestamp;P1;durP1;ratioP1;P2;durP2;ratioP2
40997;SDS011;26740;45.944;12.480;2023-05-10T00:01:59;7.03;;;1.08;;
40997;SDS011;26740;45.944;12.480;2023-05-10T00:04:25;4.15;;;0.63;;
40997;SDS011;26740;45.944;12.480;2023-05-10T00:06:52;0.73;;;0.50;;
40997;SDS011;26740;45.944;12.480;2023-05-10T00:09:18;4.80;;;0.75;;
40997;SDS011;26740;45.944;12.480;2023-05-10T00:11:43;5.80;;;0.70;;
40997;SDS011;26740;45.944;12.480;2023-05-10T00:14:09;3.50;;;0.90;;
40997;SDS011;26740;45.944;12.480;2023-05-10T00:16:34;1.40;;;0.50;;
40997;SDS011;26740;45.944;12.480;2023-05-10T00:18:59;1.15;;;0.40;;
40997;SDS011;26740;45.944;12.480;2023-05-10T00:21:25;1.75;;;0.52;;
40997;SDS011;26740;45.944;12.480;2023-05-10T00:23:50;1.30;;;0.50;;
40997;SDS011;26740;45.944;12.480;2023-05-10T00:26:16;0.75;;;0.45;;
40997;SDS011;26740;45.944;12.480;2023-05-10T00:28:41;1.45;;;0.98;;
40997;SDS011;26740;45.944;12.480;2023-05-10T00:31:07;1.17;;;0.43;;
40997;SDS011;26740;45.944;12.480;2023-05-10T00:33:32;1.77;;;0.80;;
40997;SDS011;26740;45.944;12.480;2023-05-10T00:35:58;1.20;;;0.50;;
40997;SDS011;26740;45.944;12.480;2023-05-10T00:38:23;2.67;;;0.73;;
40997;SDS011;26740;45.944;12.480;2023-05-10T00:40:48;0.60;;;0.50;;
40997;SDS011;26740;45.944;12.480;2023-05-10T00:43:14;2.35;;;0.70;;
40997;SDS011;26740;45.944;12.480;2023-05-10T00:45:39;1.20;;;0.55;;
40997;SDS011;26740;45.944;12.480;2023-05-10T00:48:05;1.23;;;0.40;;
40997;SDS011;26740;45.944;12.480;2023-05-10T00:50:31;2.35;;;0.88;;
40997;SDS011;26740;45.944;12.480;2023-05-10T00:52:57;4.18;;;0.60;;
40997;SDS011;26740;45.944;12.480;2023-05-10T00:55:24;1.33;;;0.60;;
40997;SDS011;26740;45.944;12.480;2023-05-10T00:57:49;4.20;;;0.93;;
40997;SDS011;26740;45.944;12.480;2023-05-10T01:00:15;0.90;;;0.47;;
40997;SDS011;26740;45.944;12.480;2023-05-10T01:02:47;2.08;;;0.40;;
40997;SDS011;26740;45.944;12.480;2023-05-10T01:05:12;1.52;;;0.57;;
40997;SDS011;26740;45.944;12.480;2023-05-10T01:07:38;2.28;;;0.60;;
40997;SDS011;26740;45.944;12.480;2023-05-10T01:10:04;1.20;;;0.70;;
40997;SDS011;26740;45.944;12.480;2023-05-10T01:12:29;2.75;;;0.85;;
40997;SDS011;26740;45.944;12.480;2023-05-10T01:14:55;1.77;;;0.60;;
40997;SDS011;26740;45.944;12.480;2023-05-10T01:17:20;2.20;;;0.70;;
40997;SDS011;26740;45.944;12.480;2023-05-10T01:19:46;1.80;;;0.63;;
40997;SDS011;26740;45.944;12.480;2023-05-10T01:33:24;1.30;;;0.60;;
40997;SDS011;26740;45.944;12.480;2023-05-10T01:35:29;3.05;;;0.70;;
40997;SDS011;26740;45.944;12.480;2023-05-10T01:37:59;2.70;;;0.63;;
40997;SDS011;26740;45.944;12.480;2023-05-10T01:40:31;0.82;;;0.65;;
40997;SDS011;26740;45.944;12.480;2023-05-10T01:43:01;2.45;;;0.40;;
40997;SDS011;26740;45.944;12.480;2023-05-10T01:45:31;1.25;;;0.50;;
40997;SDS011;26740;45.944;12.480;2023-05-10T01:48:17;2.45;;;0.82;;
40997;SDS011;26740;45.944;12.480;2023-05-10T01:50:44;2.22;;;0.50;;
40997;SDS011;26740;45.944;12.480;2023-05-10T01:53:11;0.60;;;0.43;;
40997;SDS011;26740;45.944;12.480;2023-05-10T01:55:44;1.38;;;0.55;;
40997;SDS011;26740;45.944;12.480;2023-05-10T01:58:32;2.78;;;0.57;;
40997;SDS011;26740;45.944;12.480;2023-05-10T02:00:57;1.83;;;0.77;;
40997;SDS011;26740;45.944;12.480;2023-05-10T02:03:24;4.50;;;1.02;;
40997;SDS011;26740;45.944;12.480;2023-05-10T02:05:51;2.55;;;0.80;;
40997;SDS011;26740;45.944;12.480;2023-05-10T02:08:17;2.03;;;0.60;;
40997;SDS011;26740;45.944;12.480;2023-05-10T02:10:45;2.50;;;0.70;;
40997;SDS011;26740;45.944;12.480;2023-05-10T02:13:10;2.70;;;0.43;;
40997;SDS011;26740;45.944;12.480;2023-05-10T02:15:36;3.58;;;0.80;;
40997;SDS011;26740;45.944;12.480;2023-05-10T02:18:02;2.35;;;0.70;;
40997;SDS011;26740;45.944;12.480;2023-05-10T02:20:30;1.73;;;0.60;;
40997;SDS011;26740;45.944;12.480;2023-05-10T02:22:56;3.22;;;0.70;;
40997;SDS011;26740;45.944;12.480;2023-05-10T02:25:23;2.33;;;0.75;;
40997;SDS011;26740;45.944;12.480;2023-05-10T02:27:48;1.05;;;0.50;;
40997;SDS011;26740;45.944;12.480;2023-05-10T02:30:15;1.83;;;0.85;;
40997;SDS011;26740;45.944;12.480;2023-05-10T02:32:41;1.92;;;0.68;;
40997;SDS011;26740;45.944;12.480;2023-05-10T02:35:08;1.40;;;0.98;;
40997;SDS011;26740;45.944;12.480;2023-05-10T02:37:34;1.45;;;0.80;;
40997;SDS011;26740;45.944;12.480;2023-05-10T02:40:00;1.20;;;1.05;;
40997;SDS011;26740;45.944;12.480;2023-05-10T02:42:28;1.88;;;1.13;;
40997;SDS011;26740;45.944;12.480;2023-05-10T02:44:57;1.48;;;0.77;;
40997;SDS011;26740;45.944;12.480;2023-05-10T02:47:24;1.83;;;0.75;;
40997;SDS011;26740;45.944;12.480;2023-05-10T02:49:50;3.47;;;0.80;;
40997;SDS011;26740;45.944;12.480;2023-05-10T02:52:16;3.22;;;0.70;;
40997;SDS011;26740;45.944;12.480;2023-05-10T02:54:45;1.92;;;0.70;;
40997;SDS011;26740;45.944;12.480;2023-05-10T02:57:11;2.97;;;0.63;;
40997;SDS011;26740;45.944;12.480;2023-05-10T02:59:40;1.50;;;1.02;;
40997;SDS011;26740;45.944;12.480;2023-05-10T03:02:08;5.85;;;0.70;;
40997;SDS011;26740;45.944;12.480;2023-05-10T03:04:33;5.57;;;0.95;;
40997;SDS011;26740;45.944;12.480;2023-05-10T03:06:59;3.20;;;0.80;;
40997;SDS011;26740;45.944;12.480;2023-05-10T03:09:24;2.90;;;0.95;;
40997;SDS011;26740;45.944;12.480;2023-05-10T03:14:42;2.65;;;0.73;;
40997;SDS011;26740;45.944;12.480;2023-05-10T03:17:22;1.52;;;0.80;;
40997;SDS011;26740;45.944;12.480;2023-05-10T03:22:17;2.88;;;0.65;;
40997;SDS011;26740;45.944;12.480;2023-05-10T03:24:44;2.25;;;1.17;;
40997;SDS011;26740;45.944;12.480;2023-05-10T03:27:10;3.38;;;1.00;;
40997;SDS011;26740;45.944;12.480;2023-05-10T03:29:36;1.58;;;0.77;;
40997;SDS011;26740;45.944;12.480;2023-05-10T03:32:03;2.75;;;0.57;;
40997;SDS011;26740;45.944;12.480;2023-05-10T03:34:29;1.50;;;0.65;;
40997;SDS011;26740;45.944;12.480;2023-05-10T03:36:55;1.75;;;0.90;;
40997;SDS011;26740;45.944;12.480;2023-05-10T03:39:21;2.05;;;0.85;;
40997;SDS011;26740;45.944;12.480;2023-05-10T03:41:46;1.17;;;0.90;;
40997;SDS011;26740;45.944;12.480;2023-05-10T03:44:12;1.33;;;0.93;;
40997;SDS011;26740;45.944;12.480;2023-05-10T03:46:37;6.32;;;1.00;;
40997;SDS011;26740;45.944;12.480;2023-05-10T03:49:03;0.73;;;0.60;;
40997;SDS011;26740;45.944;12.480;2023-05-10T03:51:28;1.67;;;0.93;;
40997;SDS011;26740;45.944;12.480;2023-05-10T03:53:54;4.03;;;1.20;;
40997;SDS011;26740;45.944;12.480;2023-05-10T03:56:20;4.95;;;2.15;;
40997;SDS011;26740;45.944;12.480;2023-05-10T03:58:46;4.25;;;1.02;;
40997;SDS011;26740;45.944;12.480;2023-05-10T04:01:11;2.67;;;1.13;;
40997;SDS011;26740;45.944;12.480;2023-05-10T04:03:37;1.17;;;0.93;;
40997;SDS011;26740;45.944;12.480;2023-05-10T04:06:03;2.50;;;1.20;;
40997;SDS011;26740;45.944;12.480;2023-05-10T04:08:29;2.45;;;1.02;;
40997;SDS011;26740;45.944;12.480;2023-05-10T04:10:54;4.90;;;0.90;;
40997;SDS011;26740;45.944;12.480;2023-05-10T04:13:20;2.80;;;1.00;;
40997;SDS011;26740;45.944;12.480;2023-05-10T04:15:46;1.50;;;0.90;;
40997;SDS011;26740;45.944;12.480;2023-05-10T04:18:11;2.28;;;0.90;;
40997;SDS011;26740;45.944;12.480;2023-05-10T04:20:36;2.55;;;1.05;;
40997;SDS011;26740;45.944;12.480;2023-05-10T04:23:02;3.45;;;1.40;;
40997;SDS011;26740;45.944;12.480;2023-05-10T04:25:28;2.67;;;1.00;;
40997;SDS011;26740;45.944;12.480;2023-05-10T04:27:53;1.48;;;1.02;;
40997;SDS011;26740;45.944;12.480;2023-05-10T04:30:18;1.60;;;0.90;;
40997;SDS011;26740;45.944;12.480;2023-05-10T04:32:44;1.85;;;1.08;;
40997;SDS011;26740;45.944;12.480;2023-05-10T04:35:09;1.55;;;1.45;;
40997;SDS011;26740;45.944;12.480;2023-05-10T04:37:35;4.55;;;1.17;;
40997;SDS011;26740;45.944;12.480;2023-05-10T04:40:01;4.70;;;1.10;;
40997;SDS011;26740;45.944;12.480;2023-05-10T04:42:28;1.23;;;0.98;;
40997;SDS011;26740;45.944;12.480;2023-05-10T04:44:53;2.83;;;2.33;;
40997;SDS011;26740;45.944;12.480;2023-05-10T04:47:19;2.35;;;1.70;;
40997;SDS011;26740;45.944;12.480;2023-05-10T04:49:45;2.17;;;1.92;;
40997;SDS011;26740;45.944;12.480;2023-05-10T04:52:10;4.60;;;1.90;;
40997;SDS011;26740;45.944;12.480;2023-05-10T04:54:36;4.00;;;1.25;;
40997;SDS011;26740;45.944;12.480;2023-05-10T04:57:02;3.58;;;1.48;;
40997;SDS011;26740;45.944;12.480;2023-05-10T04:59:27;1.38;;;1.27;;
40997;SDS011;26740;45.944;12.480;2023-05-10T05:01:52;2.22;;;1.10;;
40997;SDS011;26740;45.944;12.480;2023-05-10T05:04:18;2.45;;;1.38;;
40997;SDS011;26740;45.944;12.480;2023-05-10T05:06:43;1.33;;;0.90;;
40997;SDS011;26740;45.944;12.480;2023-05-10T05:09:09;2.33;;;1.00;;
40997;SDS011;26740;45.944;12.480;2023-05-10T05:11:35;1.60;;;1.40;;
40997;SDS011;26740;45.944;12.480;2023-05-10T05:14:00;4.95;;;1.38;;
40997;SDS011;26740;45.944;12.480;2023-05-10T05:16:26;2.00;;;1.05;;
40997;SDS011;26740;45.944;12.480;2023-05-10T05:18:51;1.30;;;1.10;;
40997;SDS011;26740;45.944;12.480;2023-05-10T05:21:17;2.45;;;1.35;;
40997;SDS011;26740;45.944;12.480;2023-05-10T05:23:43;2.63;;;1.20;;
40997;SDS011;26740;45.944;12.480;2023-05-10T05:26:08;2.05;;;1.42;;
40997;SDS011;26740;45.944;12.480;2023-05-10T05:28:34;5.22;;;1.25;;
40997;SDS011;26740;45.944;12.480;2023-05-10T05:31:02;4.13;;;1.27;;
40997;SDS011;26740;45.944;12.480;2023-05-10T05:33:28;2.53;;;0.90;;
40997;SDS011;26740;45.944;12.480;2023-05-10T05:35:53;0.82;;;0.80;;
40997;SDS011;26740;45.944;12.480;2023-05-10T05:38:19;1.60;;;0.95;;
40997;SDS011;26740;45.944;12.480;2023-05-10T05:40:44;2.33;;;0.90;;
40997;SDS011;26740;45.944;12.480;2023-05-10T05:43:10;2.95;;;1.10;;
40997;SDS011;26740;45.944;12.480;2023-05-10T05:45:36;2.95;;;1.10;;
40997;SDS011;26740;45.944;12.480;2023-05-10T05:48:01;4.57;;;1.23;;
40997;SDS011;26740;45.944;12.480;2023-05-10T05:50:27;4.30;;;1.80;;
40997;SDS011;26740;45.944;12.480;2023-05-10T05:52:52;3.25;;;1.30;;
40997;SDS011;26740;45.944;12.480;2023-05-10T05:55:17;3.00;;;1.30;;
40997;SDS011;26740;45.944;12.480;2023-05-10T05:57:43;3.58;;;1.50;;
40997;SDS011;26740;45.944;12.480;2023-05-10T06:00:08;1.52;;;1.02;;
40997;SDS011;26740;45.944;12.480;2023-05-10T06:02:34;1.85;;;1.30;;
40997;SDS011;26740;45.944;12.480;2023-05-10T06:04:59;3.47;;;1.45;;
40997;SDS011;26740;45.944;12.480;2023-05-10T06:07:24;2.20;;;1.10;;
40997;SDS011;26740;45.944;12.480;2023-05-10T06:09:50;3.22;;;1.25;;
40997;SDS011;26740;45.944;12.480;2023-05-10T06:12:16;4.20;;;1.60;;
40997;SDS011;26740;45.944;12.480;2023-05-10T06:14:41;8.32;;;1.70;;
40997;SDS011;26740;45.944;12.480;2023-05-10T06:17:07;4.28;;;1.45;;
40997;SDS011;26740;45.944;12.480;2023-05-10T06:19:32;2.78;;;1.65;;
40997;SDS011;26740;45.944;12.480;2023-05-10T06:21:57;5.20;;;2.05;;
40997;SDS011;26740;45.944;12.480;2023-05-10T06:24:23;4.05;;;1.98;;
40997;SDS011;26740;45.944;12.480;2023-05-10T06:26:48;7.45;;;2.58;;
40997;SDS011;26740;45.944;12.480;2023-05-10T06:29:15;4.88;;;2.50;;
40997;SDS011;26740;45.944;12.480;2023-05-10T06:31:40;3.90;;;2.35;;
40997;SDS011;26740;45.944;12.480;2023-05-10T06:34:06;2.38;;;2.13;;
40997;SDS011;26740;45.944;12.480;2023-05-10T06:36:33;5.57;;;2.25;;
40997;SDS011;26740;45.944;12.480;2023-05-10T06:38:58;8.02;;;2.65;;
40997;SDS011;26740;45.944;12.480;2023-05-10T06:41:24;6.43;;;2.85;;
40997;SDS011;26740;45.944;12.480;2023-05-10T06:43:49;8.23;;;2.75;;
40997;SDS011;26740;45.944;12.480;2023-05-10T06:46:14;4.25;;;3.33;;
40997;SDS011;26740;45.944;12.480;2023-05-10T06:48:40;8.80;;;2.72;;
40997;SDS011;26740;45.944;12.480;2023-05-10T06:51:06;3.70;;;2.33;;
40997;SDS011;26740;45.944;12.480;2023-05-10T06:53:31;6.53;;;2.85;;
40997;SDS011;26740;45.944;12.480;2023-05-10T06:55:57;6.68;;;2.60;;
40997;SDS011;26740;45.944;12.480;2023-05-10T06:58:22;5.75;;;2.60;;
40997;SDS011;26740;45.944;12.480;2023-05-10T07:00:47;4.65;;;2.90;;
40997;SDS011;26740;45.944;12.480;2023-05-10T07:03:13;7.03;;;1.65;;
40997;SDS011;26740;45.944;12.480;2023-05-10T07:05:38;3.15;;;1.98;;
40997;SDS011;26740;45.944;12.480;2023-05-10T07:08:04;2.83;;;1.63;;
40997;SDS011;26740;45.944;12.480;2023-05-10T07:10:29;4.78;;;2.42;;
40997;SDS011;26740;45.944;12.480;2023-05-10T07:12:55;9.63;;;2.40;;
40997;SDS011;26740;45.944;12.480;2023-05-10T07:15:20;4.53;;;2.17;;
40997;SDS011;26740;45.944;12.480;2023-05-10T07:17:45;4.07;;;2.63;;
40997;SDS011;26740;45.944;12.480;2023-05-10T07:20:11;5.20;;;3.08;;
40997;SDS011;26740;45.944;12.480;2023-05-10T07:22:37;6.18;;;3.35;;
40997;SDS011;26740;45.944;12.480;2023-05-10T07:25:02;5.18;;;3.30;;
40997;SDS011;26740;45.944;12.480;2023-05-10T07:27:27;3.60;;;3.08;;
40997;SDS011;26740;45.944;12.480;2023-05-10T07:29:53;12.05;;;4.05;;
40997;SDS011;26740;45.944;12.480;2023-05-10T07:32:19;4.90;;;2.67;;
40997;SDS011;26740;45.944;12.480;2023-05-10T07:34:45;4.30;;;2.85;;
40997;SDS011;26740;45.944;12.480;2023-05-10T07:37:10;6.43;;;2.90;;
40997;SDS011;26740;45.944;12.480;2023-05-10T07:39:35;6.32;;;3.33;;
40997;SDS011;26740;45.944;12.480;2023-05-10T07:42:01;8.18;;;4.22;;
40997;SDS011;26740;45.944;12.480;2023-05-10T07:44:26;11.57;;;3.90;;
40997;SDS011;26740;45.944;12.480;2023-05-10T07:46:51;8.02;;;3.00;;
40997;SDS011;26740;45.944;12.480;2023-05-10T07:49:17;7.78;;;3.70;;
40997;SDS011;26740;45.944;12.480;2023-05-10T07:51:42;11.10;;;3.92;;
40997;SDS011;26740;45.944;12.480;2023-05-10T07:54:08;11.13;;;3.80;;
40997;SDS011;26740;45.944;12.480;2023-05-10T07:56:33;6.50;;;3.67;;
40997;SDS011;26740;45.944;12.480;2023-05-10T07:58:59;4.95;;;3.05;;
40997;SDS011;26740;45.944;12.480;2023-05-10T08:01:25;4.32;;;2.85;;
40997;SDS011;26740;45.944;12.480;2023-05-10T08:03:51;3.38;;;1.63;;
40997;SDS011;26740;45.944;12.480;2023-05-10T08:06:18;2.75;;;1.75;;
40997;SDS011;26740;45.944;12.480;2023-05-10T08:08:45;1.55;;;1.33;;
40997;SDS011;26740;45.944;12.480;2023-05-10T08:11:14;2.30;;;1.20;;
40997;SDS011;26740;45.944;12.480;2023-05-10T08:13:39;1.83;;;1.52;;
40997;SDS011;26740;45.944;12.480;2023-05-10T08:16:04;5.00;;;2.03;;
40997;SDS011;26740;45.944;12.480;2023-05-10T08:18:30;5.00;;;3.42;;
40997;SDS011;26740;45.944;12.480;2023-05-10T08:20:55;3.30;;;1.65;;
40997;SDS011;26740;45.944;12.480;2023-05-10T08:23:21;2.00;;;1.20;;
40997;SDS011;26740;45.944;12.480;2023-05-10T08:25:46;2.58;;;1.05;;
40997;SDS011;26740;45.944;12.480;2023-05-10T08:28:11;2.08;;;1.10;;
40997;SDS011;26740;45.944;12.480;2023-05-10T08:30:37;3.35;;;1.40;;
40997;SDS011;26740;45.944;12.480;2023-05-10T08:33:02;4.00;;;0.82;;
40997;SDS011;26740;45.944;12.480;2023-05-10T08:35:27;1.05;;;0.95;;
40997;SDS011;26740;45.944;12.480;2023-05-10T08:37:53;2.88;;;2.53;;
40997;SDS011;26740;45.944;12.480;2023-05-10T08:40:19;2.00;;;1.90;;
40997;SDS011;26740;45.944;12.480;2023-05-10T08:42:47;1.60;;;1.42;;
40997;SDS011;26740;45.944;12.480;2023-05-10T08:45:15;3.05;;;1.63;;
40997;SDS011;26740;45.944;12.480;2023-05-10T08:47:41;2.22;;;1.00;;
40997;SDS011;26740;45.944;12.480;2023-05-10T08:50:07;3.83;;;1.25;;
40997;SDS011;26740;45.944;12.480;2023-05-10T08:52:32;8.18;;;1.98;;
40997;SDS011;26740;45.944;12.480;2023-05-10T08:54:58;6.72;;;2.47;;
40997;SDS011;26740;45.944;12.480;2023-05-10T08:57:23;8.05;;;2.33;;
40997;SDS011;26740;45.944;12.480;2023-05-10T08:59:49;7.60;;;2.05;;
40997;SDS011;26740;45.944;12.480;2023-05-10T09:02:14;12.05;;;2.58;;
40997;SDS011;26740;45.944;12.480;2023-05-10T09:04:40;5.70;;;1.90;;
40997;SDS011;26740;45.944;12.480;2023-05-10T09:07:06;5.78;;;1.80;;
40997;SDS011;26740;45.944;12.480;2023-05-10T09:09:32;4.43;;;2.20;;
40997;SDS011;26740;45.944;12.480;2023-05-10T09:11:57;6.38;;;2.20;;
40997;SDS011;26740;45.944;12.480;2023-05-10T09:14:23;5.75;;;1.92;;
40997;SDS011;26740;45.944;12.480;2023-05-10T09:16:49;8.88;;;2.75;;
40997;SDS011;26740;45.944;12.480;2023-05-10T09:19:14;4.07;;;2.33;;
40997;SDS011;26740;45.944;12.480;2023-05-10T09:21:40;3.20;;;1.83;;
40997;SDS011;26740;45.944;12.480;2023-05-10T09:24:06;4.50;;;2.28;;
40997;SDS011;26740;45.944;12.480;2023-05-10T09:26:31;4.15;;;1.60;;
40997;SDS011;26740;45.944;12.480;2023-05-10T09:28:57;3.45;;;2.08;;
40997;SDS011;26740;45.944;12.480;2023-05-10T09:31:24;2.63;;;2.17;;
40997;SDS011;26740;45.944;12.480;2023-05-10T09:33:52;3.70;;;2.63;;
40997;SDS011;26740;45.944;12.480;2023-05-10T09:36:18;2.85;;;2.55;;
40997;SDS011;26740;45.944;12.480;2023-05-10T09:38:50;4.25;;;2.72;;
40997;SDS011;26740;45.944;12.480;2023-05-10T09:41:17;3.72;;;2.53;;
40997;SDS011;26740;45.944;12.480;2023-05-10T09:43:43;4.82;;;2.45;;
40997;SDS011;26740;45.944;12.480;2023-05-10T09:46:09;3.60;;;2.50;;
40997;SDS011;26740;45.944;12.480;2023-05-10T09:48:34;5.55;;;2.83;;
40997;SDS011;26740;45.944;12.480;2023-05-10T09:51:05;3.03;;;2.40;;
40997;SDS011;26740;45.944;12.480;2023-05-10T09:53:30;4.43;;;3.00;;
40997;SDS011;26740;45.944;12.480;2023-05-10T09:55:56;3.42;;;2.03;;
40997;SDS011;26740;45.944;12.480;2023-05-10T09:58:21;2.63;;;1.85;;
40997;SDS011;26740;45.944;12.480;2023-05-10T10:00:46;5.30;;;1.52;;
40997;SDS011;26740;45.944;12.480;2023-05-10T10:03:18;3.47;;;2.22;;
40997;SDS011;26740;45.944;12.480;2023-05-10T10:05:44;4.18;;;2.38;;
40997;SDS011;26740;45.944;12.480;2023-05-10T10:08:10;3.65;;;2.70;;
40997;SDS011;26740;45.944;12.480;2023-05-10T10:10:35;2.40;;;2.20;;
40997;SDS011;26740;45.944;12.480;2023-05-10T10:13:01;2.75;;;2.40;;
40997;SDS011;26740;45.944;12.480;2023-05-10T10:15:26;8.65;;;1.92;;
40997;SDS011;26740;45.944;12.480;2023-05-10T10:17:52;2.13;;;1.90;;
40997;SDS011;26740;45.944;12.480;2023-05-10T10:20:19;3.30;;;1.73;;
40997;SDS011;26740;45.944;12.480;2023-05-10T10:22:44;5.43;;;2.20;;
40997;SDS011;26740;45.944;12.480;2023-05-10T10:25:11;3.58;;;2.63;;
40997;SDS011;26740;45.944;12.480;2023-05-10T10:35:33;3.58;;;2.08;;
40997;SDS011;26740;45.944;12.480;2023-05-10T10:37:59;3.08;;;2.72;;
40997;SDS011;26740;45.944;12.480;2023-05-10T10:40:27;2.85;;;2.55;;
40997;SDS011;26740;45.944;12.480;2023-05-10T10:42:53;4.10;;;2.35;;
40997;SDS011;26740;45.944;12.480;2023-05-10T10:45:19;5.68;;;2.45;;
40997;SDS011;26740;45.944;12.480;2023-05-10T10:47:45;7.78;;;2.65;;
40997;SDS011;26740;45.944;12.480;2023-05-10T10:50:11;3.92;;;2.45;;
40997;SDS011;26740;45.944;12.480;2023-05-10T10:52:44;3.97;;;2.47;;
40997;SDS011;26740;45.944;12.480;2023-05-10T10:55:11;7.10;;;2.63;;
40997;SDS011;26740;45.944;12.480;2023-05-10T11:00:24;4.18;;;3.67;;
40997;SDS011;26740;45.944;12.480;2023-05-10T11:02:52;4.00;;;3.53;;
40997;SDS011;26740;45.944;12.480;2023-05-10T11:07:56;5.88;;;4.10;;
40997;SDS011;26740;45.944;12.480;2023-05-10T11:10:22;6.70;;;4.53;;
40997;SDS011;26740;45.944;12.480;2023-05-10T11:13:07;6.28;;;4.45;;
40997;SDS011;26740;45.944;12.480;2023-05-10T11:15:33;4.45;;;4.03;;
40997;SDS011;26740;45.944;12.480;2023-05-10T11:17:59;3.60;;;3.30;;
40997;SDS011;26740;45.944;12.480;2023-05-10T11:20:27;3.60;;;3.30;;
40997;SDS011;26740;45.944;12.480;2023-05-10T11:22:59;5.70;;;2.78;;
40997;SDS011;26740;45.944;12.480;2023-05-10T11:25:39;4.18;;;3.03;;
40997;SDS011;26740;45.944;12.480;2023-05-10T11:30:31;3.57;;;3.27;;
40997;SDS011;26740;45.944;12.480;2023-05-10T11:32:56;5.00;;;3.50;;
40997;SDS011;26740;45.944;12.480;2023-05-10T11:35:21;3.80;;;3.45;;
40997;SDS011;26740;45.944;12.480;2023-05-10T11:37:47;4.15;;;3.75;;
40997;SDS011;26740;45.944;12.480;2023-05-10T11:40:13;7.03;;;4.03;;
40997;SDS011;26740;45.944;12.480;2023-05-10T11:42:39;3.75;;;3.45;;
40997;SDS011;26740;45.944;12.480;2023-05-10T11:45:05;4.05;;;3.75;;
40997;SDS011;26740;45.944;12.480;2023-05-10T11:47:31;4.90;;;4.15;;
40997;SDS011;26740;45.944;12.480;2023-05-10T11:49:56;4.72;;;4.32;;
40997;SDS011;26740;45.944;12.480;2023-05-10T11:52:22;5.93;;;4.60;;
40997;SDS011;26740;45.944;12.480;2023-05-10T11:54:51;6.15;;;4.18;;
40997;SDS011;26740;45.944;12.480;2023-05-10T11:57:19;5.47;;;4.03;;
40997;SDS011;26740;45.944;12.480;2023-05-10T11:59:45;5.78;;;3.83;;
40997;SDS011;26740;45.944;12.480;2023-05-10T12:02:11;5.30;;;4.18;;
40997;SDS011;26740;45.944;12.480;2023-05-10T12:04:37;4.70;;;3.65;;
40997;SDS011;26740;45.944;12.480;2023-05-10T12:07:03;4.30;;;3.50;;
40997;SDS011;26740;45.944;12.480;2023-05-10T12:09:28;5.03;;;4.53;;
40997;SDS011;26740;45.944;12.480;2023-05-10T12:11:55;4.32;;;3.75;;
40997;SDS011;26740;45.944;12.480;2023-05-10T12:14:22;8.43;;;3.83;;
40997;SDS011;26740;45.944;12.480;2023-05-10T12:16:47;3.85;;;3.55;;
40997;SDS011;26740;45.944;12.480;2023-05-10T12:19:13;3.88;;;3.55;;
40997;SDS011;26740;45.944;12.480;2023-05-10T12:21:43;5.22;;;4.20;;
40997;SDS011;26740;45.944;12.480;2023-05-10T12:24:09;4.72;;;4.05;;
40997;SDS011;26740;45.944;12.480;2023-05-10T12:26:36;6.10;;;3.33;;
40997;SDS011;26740;45.944;12.480;2023-05-10T12:29:19;4.18;;;3.40;;
40997;SDS011;26740;45.944;12.480;2023-05-10T12:31:58;5.80;;;3.22;;
40997;SDS011;26740;45.944;12.480;2023-05-10T12:36:51;2.83;;;2.25;;
40997;SDS011;26740;45.944;12.480;2023-05-10T12:39:17;3.28;;;2.80;;
40997;SDS011;26740;45.944;12.480;2023-05-10T12:41:42;2.95;;;2.33;;
40997;SDS011;26740;45.944;12.480;2023-05-10T12:44:08;4.43;;;3.50;;
40997;SDS011;26740;45.944;12.480;2023-05-10T12:46:33;4.93;;;3.50;;
40997;SDS011;26740;45.944;12.480;2023-05-10T12:48:59;4.00;;;2.95;;
40997;SDS011;26740;45.944;12.480;2023-05-10T12:51:24;3.92;;;3.50;;
40997;SDS011;26740;45.944;12.480;2023-05-10T12:53:49;6.65;;;3.58;;
40997;SDS011;26740;45.944;12.480;2023-05-10T12:56:15;5.95;;;3.75;;
40997;SDS011;26740;45.944;12.480;2023-05-10T12:58:40;4.35;;;3.55;;
40997;SDS011;26740;45.944;12.480;2023-05-10T13:01:06;5.80;;;3.42;;
40997;SDS011;26740;45.944;12.480;2023-05-10T13:03:31;8.30;;;4.13;;
40997;SDS011;26740;45.944;12.480;2023-05-10T13:05:57;5.20;;;3.67;;
40997;SDS011;26740;45.944;12.480;2023-05-10T13:08:22;7.35;;;3.65;;
40997;SDS011;26740;45.944;12.480;2023-05-10T13:10:48;4.55;;;3.40;;
40997;SDS011;26740;45.944;12.480;2023-05-10T13:13:13;4.93;;;3.03;;
40997;SDS011;26740;45.944;12.480;2023-05-10T13:15:39;6.35;;;3.80;;
40997;SDS011;26740;45.944;12.480;2023-05-10T13:18:04;4.82;;;3.58;;
40997;SDS011;26740;45.944;12.480;2023-05-10T13:20:30;7.75;;;4.57;;
40997;SDS011;26740;45.944;12.480;2023-05-10T13:22:55;5.85;;;4.57;;
40997;SDS011;26740;45.944;12.480;2023-05-10T13:25:21;4.22;;;3.75;;
40997;SDS011;26740;45.944;12.480;2023-05-10T13:27:46;4.50;;;3.85;;
40997;SDS011;26740;45.944;12.480;2023-05-10T13:30:11;4.85;;;3.95;;
40997;SDS011;26740;45.944;12.480;2023-05-10T13:32:37;5.25;;;4.43;;
40997;SDS011;26740;45.944;12.480;2023-05-10T13:35:03;5.88;;;3.78;;
40997;SDS011;26740;45.944;12.480;2023-05-10T13:37:29;4.10;;;3.50;;
40997;SDS011;26740;45.944;12.480;2023-05-10T13:39:55;7.03;;;3.83;;
40997;SDS011;26740;45.944;12.480;2023-05-10T13:42:21;5.63;;;3.28;;
40997;SDS011;26740;45.944;12.480;2023-05-10T13:44:47;5.20;;;3.72;;
40997;SDS011;26740;45.944;12.480;2023-05-10T13:47:12;3.80;;;3.20;;
40997;SDS011;26740;45.944;12.480;2023-05-10T13:49:37;3.85;;;3.20;;
40997;SDS011;26740;45.944;12.480;2023-05-10T13:52:03;3.72;;;3.42;;
40997;SDS011;26740;45.944;12.480;2023-05-10T13:54:34;5.88;;;3.30;;
40997;SDS011;26740;45.944;12.480;2023-05-10T13:57:00;19.67;;;3.80;;
40997;SDS011;26740;45.944;12.480;2023-05-10T13:59:26;7.22;;;3.45;;
40997;SDS011;26740;45.944;12.480;2023-05-10T14:01:51;4.82;;;3.22;;
40997;SDS011;26740;45.944;12.480;2023-05-10T14:04:17;4.47;;;2.60;;
40997;SDS011;26740;45.944;12.480;2023-05-10T14:06:42;6.47;;;3.30;;
40997;SDS011;26740;45.944;12.480;2023-05-10T14:09:08;6.15;;;3.20;;
40997;SDS011;26740;45.944;12.480;2023-05-10T14:11:33;5.20;;;2.47;;
40997;SDS011;26740;45.944;12.480;2023-05-10T14:13:59;6.82;;;3.03;;
40997;SDS011;26740;45.944;12.480;2023-05-10T14:16:24;3.72;;;3.40;;
40997;SDS011;26740;45.944;12.480;2023-05-10T14:18:50;3.95;;;2.88;;
40997;SDS011;26740;45.944;12.480;2023-05-10T14:21:15;3.58;;;2.92;;
40997;SDS011;26740;45.944;12.480;2023-05-10T14:23:41;2.67;;;2.47;;
40997;SDS011;26740;45.944;12.480;2023-05-10T14:26:06;4.05;;;3.75;;
40997;SDS011;26740;45.944;12.480;2023-05-10T14:28:32;4.93;;;3.47;;
40997;SDS011;26740;45.944;12.480;2023-05-10T14:30:57;3.63;;;3.25;;
40997;SDS011;26740;45.944;12.480;2023-05-10T14:33:24;3.05;;;2.75;;
40997;SDS011;26740;45.944;12.480;2023-05-10T14:35:50;5.05;;;3.63;;
40997;SDS011;26740;45.944;12.480;2023-05-10T14:38:15;3.45;;;2.80;;
40997;SDS011;26740;45.944;12.480;2023-05-10T14:40:41;3.17;;;2.88;;
40997;SDS011;26740;45.944;12.480;2023-05-10T14:43:07;4.18;;;3.67;;
40997;SDS011;26740;45.944;12.480;2023-05-10T14:45:33;4.10;;;3.70;;
40997;SDS011;26740;45.944;12.480;2023-05-10T14:47:58;4.80;;;3.75;;
40997;SDS011;26740;45.944;12.480;2023-05-10T14:50:24;5.57;;;3.55;;
40997;SDS011;26740;45.944;12.480;2023-05-10T14:52:49;4.45;;;3.00;;
40997;SDS011;26740;45.944;12.480;2023-05-10T14:55:15;3.40;;;3.08;;
40997;SDS011;26740;45.944;12.480;2023-05-10T14:57:40;5.85;;;3.38;;
40997;SDS011;26740;45.944;12.480;2023-05-10T15:00:06;3.35;;;3.05;;
40997;SDS011;26740;45.944;12.480;2023-05-10T15:02:32;4.45;;;3.25;;